This is the latest recevied weather packets stored in our database for station/object OE-11373. If no packets are shown the sender has not sent any weather packets the latest 10 day(s).
| Time | Temp. | Humidity | Pressure | Rain* | Wind** | Luminosity | Snow |
|---|---|---|---|---|---|---|---|
| 1787809286 | 18.33° C | 68% | 852.6 hPa | - | - | - | - |
| 1787808913 | 18.89° C | 66% | 852.7 hPa | - | - | - | - |
| 1787808313 | 18.33° C | 67% | 852.8 hPa | - | - | - | - |
| 1787807486 | 19.44° C | 61% | 852.8 hPa | - | - | - | - |
| 1787807113 | 20° C | 60% | 852.8 hPa | - | - | - | - |
| 1787806513 | 20° C | 59% | 852.8 hPa | - | - | - | - |
| 1787805685 | 20° C | 59% | 852.8 hPa | - | - | - | - |
| 1787805313 | 20° C | 60% | 852.8 hPa | - | - | - | - |
| 1787804713 | 18.89° C | 64% | 852.7 hPa | - | - | - | - |
| 1787803886 | 18.33° C | 66% | 852.6 hPa | - | - | - | - |
| 1787803513 | 18.33° C | 66% | 852.6 hPa | - | - | - | - |
| 1787802913 | 18.33° C | 69% | 852.4 hPa | - | - | - | - |
| 1787802313 | 18.33° C | 68% | 852.3 hPa | - | - | - | - |
| 1787801713 | 18.33° C | 68% | 852.3 hPa | - | - | - | - |
| 1787801113 | 18.33° C | 66% | 852.3 hPa | - | - | - | - |
| 1787800286 | 18.89° C | 66% | 852.5 hPa | - | - | - | - |
| 1787799913 | 18.33° C | 66% | 852.4 hPa | - | - | - | - |
| 1787799313 | 18.89° C | 65% | 852.5 hPa | - | - | - | - |
| 1787798485 | 18.89° C | 64% | 852.5 hPa | - | - | - | - |
| 1787798113 | 18.89° C | 65% | 852.5 hPa | - | - | - | - |
| 1787797513 | 18.33° C | 66% | 852.5 hPa | - | - | - | - |
| 1787796686 | 18.33° C | 66% | 852.4 hPa | - | - | - | - |
| 1787796312 | 18.89° C | 65% | 852.4 hPa | - | - | - | - |
| 1787795713 | 18.33° C | 66% | 852.3 hPa | - | - | - | - |
| 1787794886 | 18.33° C | 67% | 852.3 hPa | - | - | - | - |
* Rain since midnight (hover to see other rain measurements)
** Current wind speed in m/s (hover to see current wind gust speed)